createdAt,value
2023-04-18T00:01:11.443Z,8.80
2023-04-18T00:03:39.556Z,8.61
2023-04-18T00:06:07.846Z,8.47
2023-04-18T00:08:36.470Z,8.56
2023-04-18T00:11:04.280Z,8.64
2023-04-18T00:13:33.684Z,8.72
2023-04-18T00:16:01.781Z,8.63
2023-04-18T00:18:29.437Z,8.63
2023-04-18T00:20:57.894Z,8.65
2023-04-18T00:23:37.151Z,8.64
2023-04-18T00:26:04.801Z,8.60
2023-04-18T00:28:34.036Z,8.62
2023-04-18T00:31:01.793Z,8.55
2023-04-18T00:33:29.487Z,8.53
2023-04-18T00:35:57.148Z,8.51
2023-04-18T00:38:24.765Z,8.51
2023-04-18T00:40:52.363Z,8.35
2023-04-18T00:43:26.813Z,8.35
2023-04-18T00:45:59.423Z,8.26
2023-04-18T00:48:27.401Z,8.29
2023-04-18T00:50:55.512Z,8.15
2023-04-18T00:53:23.216Z,8.19
2023-04-18T00:55:51.174Z,8.21
2023-04-18T00:58:20.944Z,8.09
2023-04-18T01:00:49.212Z,8.08
2023-04-18T01:03:19.182Z,8.02
2023-04-18T01:05:48.446Z,7.91
2023-04-18T01:08:18.110Z,7.94
2023-04-18T01:10:47.982Z,7.72
2023-04-18T01:13:17.408Z,7.81
2023-04-18T01:15:46.751Z,7.74
2023-04-18T01:18:17.032Z,7.83
2023-04-18T01:20:48.299Z,7.78
2023-04-18T01:23:16.632Z,7.76
2023-04-18T01:25:46.419Z,7.77
2023-04-18T01:28:16.801Z,7.88
2023-04-18T01:30:44.439Z,7.70
2023-04-18T01:33:12.312Z,7.52
2023-04-18T01:35:39.955Z,7.37
2023-04-18T01:38:07.837Z,7.51
2023-04-18T01:40:35.738Z,7.36
2023-04-18T01:43:06.036Z,7.33
2023-04-18T01:45:33.629Z,7.34
2023-04-18T01:48:01.376Z,7.39
2023-04-18T01:50:29.072Z,7.29
2023-04-18T01:52:56.669Z,7.20
2023-04-18T01:55:24.475Z,7.15
2023-04-18T01:57:52.673Z,7.26
2023-04-18T02:00:22.537Z,7.23
2023-04-18T02:02:50.999Z,7.20
2023-04-18T02:05:19.067Z,7.08
2023-04-18T02:07:47.628Z,7.06
2023-04-18T02:10:15.534Z,7.03
2023-04-18T02:12:43.108Z,6.99
2023-04-18T02:15:11.734Z,7.10
2023-04-18T02:17:42.064Z,6.96
2023-04-18T02:20:13.191Z,7.02
2023-04-18T02:22:40.751Z,6.84
2023-04-18T02:25:08.963Z,6.83
2023-04-18T02:27:36.613Z,6.81
2023-04-18T02:30:05.464Z,6.89
2023-04-18T02:32:33.123Z,6.82
2023-04-18T02:35:02.171Z,6.90
2023-04-18T02:37:29.805Z,6.81
2023-04-18T02:39:58.626Z,6.90
2023-04-18T02:42:27.326Z,6.93
2023-04-18T02:44:55.024Z,6.96
2023-04-18T02:47:22.675Z,6.88
2023-04-18T02:49:50.937Z,6.80
2023-04-18T02:52:22.814Z,6.72
2023-04-18T02:54:50.387Z,6.68
2023-04-18T02:57:18.352Z,6.71
2023-04-18T02:59:46.062Z,6.65
2023-04-18T03:02:13.774Z,6.74
2023-04-18T03:04:41.356Z,6.72
2023-04-18T03:07:08.970Z,6.65
2023-04-18T03:09:42.057Z,6.63
2023-04-18T03:12:10.121Z,6.62
2023-04-18T03:14:47.753Z,6.61
2023-04-18T03:17:15.807Z,6.61
2023-04-18T03:22:26.281Z,6.59
2023-04-18T03:24:55.336Z,6.59
2023-04-18T03:27:23.041Z,6.60
2023-04-18T03:29:51.000Z,6.51
2023-04-18T03:32:21.485Z,6.50
2023-04-18T03:34:49.775Z,6.61
2023-04-18T03:37:17.473Z,6.63
2023-04-18T03:39:45.067Z,6.55
2023-04-18T03:42:13.974Z,6.51
2023-04-18T03:44:41.593Z,6.45
2023-04-18T03:47:09.349Z,6.47
2023-04-18T03:49:37.088Z,6.55
2023-04-18T03:52:04.776Z,6.52
2023-04-18T03:54:32.666Z,6.58
2023-04-18T03:57:05.356Z,6.51
2023-04-18T03:59:34.416Z,6.27
2023-04-18T04:02:02.113Z,6.45
2023-04-18T04:04:31.433Z,6.47
2023-04-18T04:06:59.475Z,6.32
2023-04-18T04:09:27.143Z,6.19
2023-04-18T04:11:54.820Z,6.33
2023-04-18T04:14:22.850Z,6.33
2023-04-18T04:16:54.529Z,6.32
2023-04-18T04:19:22.102Z,6.40
2023-04-18T04:21:49.750Z,6.35
2023-04-18T04:24:17.423Z,6.28
2023-04-18T04:26:45.015Z,6.37
2023-04-18T04:29:13.777Z,6.35
2023-04-18T04:31:41.393Z,6.27
2023-04-18T04:34:13.645Z,6.27
2023-04-18T04:36:43.098Z,6.28
2023-04-18T04:39:11.321Z,6.31
2023-04-18T04:41:40.290Z,6.35
2023-04-18T04:44:10.395Z,6.34
2023-04-18T04:46:39.453Z,6.41
2023-04-18T04:49:10.299Z,6.23
2023-04-18T04:51:40.060Z,6.33
2023-04-18T04:54:10.375Z,6.52
2023-04-18T04:56:39.751Z,6.54
2023-04-18T04:59:07.759Z,6.65
2023-04-18T05:01:35.429Z,6.63
2023-04-18T05:04:03.546Z,6.70
2023-04-18T05:06:33.985Z,6.68
2023-04-18T05:09:05.240Z,6.83
2023-04-18T05:11:33.131Z,7.01
2023-04-18T05:14:00.790Z,7.05
2023-04-18T05:16:28.658Z,6.97
2023-04-18T05:18:56.578Z,7.06
2023-04-18T05:21:26.152Z,7.10
2023-04-18T05:23:54.051Z,7.08
2023-04-18T05:26:23.077Z,7.06
2023-04-18T05:28:50.692Z,7.18
2023-04-18T05:31:18.667Z,7.14
2023-04-18T05:33:46.273Z,7.11
2023-04-18T05:36:13.860Z,7.21
2023-04-18T05:38:41.547Z,7.34
2023-04-18T05:41:09.131Z,7.46
2023-04-18T05:43:38.056Z,7.53
2023-04-18T05:46:06.259Z,7.56
2023-04-18T05:48:34.050Z,7.56
2023-04-18T05:51:01.971Z,7.70
2023-04-18T05:53:29.683Z,7.82
2023-04-18T05:55:59.011Z,7.86
2023-04-18T05:58:28.681Z,7.87
2023-04-18T06:00:57.821Z,7.87
2023-04-18T06:03:25.835Z,7.92
2023-04-18T06:05:53.886Z,7.86
2023-04-18T06:08:21.518Z,7.75
2023-04-18T06:10:49.127Z,7.93
2023-04-18T06:13:16.916Z,8.09
2023-04-18T06:15:44.736Z,8.18
2023-04-18T06:18:13.849Z,8.02
2023-04-18T06:20:42.090Z,8.04
2023-04-18T06:23:09.728Z,8.04
2023-04-18T06:25:37.599Z,7.98
2023-04-18T06:28:05.604Z,7.96
2023-04-18T06:30:35.679Z,7.97
2023-04-18T06:33:03.346Z,8.00
2023-04-18T06:35:35.751Z,8.15
2023-04-18T06:38:03.331Z,8.17
2023-04-18T06:40:31.032Z,8.21
2023-04-18T06:42:58.899Z,8.23
2023-04-18T06:45:26.673Z,8.32
2023-04-18T06:47:54.446Z,8.35
2023-04-18T06:50:22.510Z,8.44
2023-04-18T06:52:51.774Z,8.57
2023-04-18T06:55:19.616Z,8.45
2023-04-18T06:57:47.224Z,8.45
2023-04-18T07:00:16.056Z,8.35
2023-04-18T07:02:44.108Z,8.34
2023-04-18T07:05:12.100Z,8.52
2023-04-18T07:07:40.188Z,8.53
2023-04-18T07:10:11.445Z,8.41
2023-04-18T07:12:42.176Z,8.60
2023-04-18T07:15:11.299Z,8.68
2023-04-18T07:17:39.039Z,8.94
2023-04-18T07:20:08.298Z,9.12
2023-04-18T07:22:35.884Z,9.42
2023-04-18T07:25:07.559Z,9.59
2023-04-18T07:27:46.608Z,9.65
2023-04-18T07:30:16.029Z,9.60
2023-04-18T07:32:43.882Z,9.62
2023-04-18T07:35:11.758Z,9.57
2023-04-18T07:37:39.528Z,9.47
2023-04-18T07:40:08.493Z,9.46
2023-04-18T07:42:36.079Z,9.44
2023-04-18T07:45:05.874Z,9.76
2023-04-18T07:47:37.615Z,9.90
2023-04-18T07:50:06.155Z,9.78
2023-04-18T07:52:37.298Z,10.04
2023-04-18T07:55:06.684Z,10.27
2023-04-18T07:57:34.929Z,10.46
2023-04-18T08:00:04.886Z,10.98
2023-04-18T08:02:34.488Z,11.25
2023-04-18T08:05:02.460Z,11.57
2023-04-18T08:07:30.456Z,11.45
2023-04-18T08:09:58.035Z,11.56
2023-04-18T08:12:25.629Z,11.61
2023-04-18T08:14:53.169Z,11.85
2023-04-18T08:17:20.910Z,11.44
2023-04-18T08:19:50.636Z,11.53
2023-04-18T08:22:18.249Z,11.45
2023-04-18T08:24:57.468Z,11.30
2023-04-18T08:27:31.906Z,11.15
2023-04-18T08:29:59.788Z,11.19
2023-04-18T08:32:27.450Z,11.38
2023-04-18T08:34:56.955Z,11.66
2023-04-18T08:37:28.077Z,11.21
2023-04-18T08:39:56.882Z,12.09
2023-04-18T08:42:24.815Z,12.26
2023-04-18T08:45:02.053Z,12.42
2023-04-18T08:47:30.389Z,12.65
2023-04-18T08:49:59.771Z,12.96
2023-04-18T08:52:31.211Z,12.00
2023-04-18T08:55:04.583Z,12.09
2023-04-18T08:57:33.364Z,12.27
2023-04-18T09:00:01.912Z,12.12
2023-04-18T09:02:39.239Z,12.81
2023-04-18T09:05:15.010Z,13.49
2023-04-18T09:07:43.931Z,14.11
2023-04-18T09:10:14.724Z,14.40
2023-04-18T09:12:50.327Z,14.58
2023-04-18T09:15:22.437Z,13.11
2023-04-18T09:17:53.364Z,12.35
2023-04-18T09:20:36.656Z,13.00
2023-04-18T09:23:11.041Z,12.43
2023-04-18T09:25:47.041Z,12.63
2023-04-18T09:28:26.987Z,13.03
2023-04-18T09:30:58.733Z,13.16
2023-04-18T09:33:29.115Z,13.27
2023-04-18T09:36:16.499Z,12.86
2023-04-18T09:38:44.457Z,13.60
2023-04-18T09:41:19.174Z,14.12
2023-04-18T09:43:49.301Z,14.56
2023-04-18T09:46:21.679Z,14.32
2023-04-18T09:48:49.408Z,13.84
2023-04-18T09:51:19.397Z,14.62
2023-04-18T09:53:47.595Z,14.63
2023-04-18T09:56:20.962Z,14.36
2023-04-18T09:58:56.018Z,14.33
2023-04-18T10:01:28.824Z,13.80
2023-04-18T10:03:58.126Z,14.28
2023-04-18T10:06:30.818Z,14.12
2023-04-18T10:09:00.400Z,14.40
2023-04-18T10:11:28.281Z,14.15
2023-04-18T10:13:59.410Z,13.86
2023-04-18T10:16:27.678Z,14.15
2023-04-18T10:18:56.569Z,14.36
2023-04-18T10:21:24.362Z,14.51
2023-04-18T10:23:53.507Z,14.49
2023-04-18T10:26:21.750Z,14.44
2023-04-18T10:28:55.119Z,14.46
2023-04-18T10:31:24.290Z,14.12
2023-04-18T10:36:28.558Z,14.60
2023-04-18T10:39:03.278Z,14.97
2023-04-18T10:41:32.122Z,15.55
2023-04-18T10:44:19.545Z,15.61
2023-04-18T10:47:33.565Z,15.42
2023-04-18T10:50:06.829Z,14.94
2023-04-18T10:52:35.298Z,15.34
2023-04-18T10:55:10.465Z,15.59
2023-04-18T10:57:42.172Z,15.32
2023-04-18T11:00:12.521Z,15.76
2023-04-18T11:02:41.296Z,15.87
2023-04-18T11:05:11.047Z,16.08
2023-04-18T11:07:40.942Z,16.13
2023-04-18T11:10:11.309Z,15.83
2023-04-18T11:12:40.961Z,15.57
2023-04-18T11:15:13.018Z,15.28
2023-04-18T11:17:41.724Z,15.07
2023-04-18T11:20:14.954Z,15.09
2023-04-18T11:22:48.278Z,14.98
2023-04-18T11:25:21.051Z,14.95
2023-04-18T11:27:54.314Z,15.45
2023-04-18T11:30:23.186Z,15.67
2023-04-18T11:32:51.549Z,15.47
2023-04-18T11:35:19.951Z,15.50
2023-04-18T11:37:50.252Z,15.39
2023-04-18T11:40:20.670Z,15.33
2023-04-18T11:42:48.490Z,15.22
2023-04-18T11:45:16.814Z,15.18
2023-04-18T11:47:46.916Z,15.26
2023-04-18T11:50:15.350Z,15.18
2023-04-18T11:52:43.494Z,15.30
2023-04-18T11:55:13.515Z,15.57
2023-04-18T11:57:42.861Z,15.61
2023-04-18T12:00:12.325Z,15.07
2023-04-18T12:02:44.646Z,15.20
2023-04-18T12:05:15.177Z,15.24
2023-04-18T12:07:46.283Z,15.08
2023-04-18T12:10:25.991Z,14.99
2023-04-18T12:12:59.676Z,15.45
2023-04-18T12:15:37.755Z,15.59
2023-04-18T12:18:11.660Z,15.58
2023-04-18T12:20:51.691Z,15.69
2023-04-18T12:23:36.344Z,15.62
2023-04-18T12:26:05.812Z,15.57
2023-04-18T12:28:40.093Z,15.34
2023-04-18T12:31:08.443Z,15.19
2023-04-18T12:33:37.013Z,14.96
2023-04-18T12:36:09.420Z,15.25
2023-04-18T12:38:38.288Z,15.03
2023-04-18T12:41:06.239Z,15.25
2023-04-18T12:43:37.268Z,15.04
2023-04-18T12:46:06.522Z,14.99
2023-04-18T12:48:34.323Z,14.87
2023-04-18T12:51:02.446Z,15.00
2023-04-18T12:53:29.968Z,15.15
2023-04-18T12:55:57.824Z,15.07
2023-04-18T12:58:26.022Z,15.19
2023-04-18T13:00:55.015Z,15.17
2023-04-18T13:03:27.187Z,14.99
2023-04-18T13:05:57.023Z,14.94
2023-04-18T13:08:30.049Z,14.92
2023-04-18T13:11:04.474Z,14.72
2023-04-18T13:13:33.850Z,14.70
2023-04-18T13:16:06.166Z,14.93
2023-04-18T13:18:37.181Z,15.17
2023-04-18T13:21:07.608Z,15.24
2023-04-18T13:23:36.786Z,15.25
2023-04-18T13:26:09.031Z,15.20
2023-04-18T13:28:36.949Z,14.85
2023-04-18T13:31:04.931Z,15.17
2023-04-18T13:33:32.678Z,14.87
2023-04-18T13:36:02.962Z,14.72
2023-04-18T13:38:33.700Z,15.05
2023-04-18T13:41:11.393Z,14.94
2023-04-18T13:43:40.902Z,14.72
2023-04-18T13:46:19.485Z,15.07
2023-04-18T13:48:47.232Z,15.37
2023-04-18T13:51:16.232Z,15.34
2023-04-18T13:53:43.879Z,15.59
2023-04-18T13:56:12.465Z,15.75
2023-04-18T13:58:40.123Z,15.84
2023-04-18T14:01:07.894Z,16.05
2023-04-18T14:03:40.628Z,16.26
2023-04-18T14:06:09.931Z,16.18
2023-04-18T14:08:39.973Z,16.09
2023-04-18T14:11:07.822Z,15.95
2023-04-18T14:13:35.824Z,15.65
2023-04-18T14:16:06.609Z,15.59
2023-04-18T14:18:35.557Z,15.39
2023-04-18T14:21:03.708Z,15.67
2023-04-18T14:23:31.590Z,15.41
2023-04-18T14:26:01.301Z,15.46
2023-04-18T14:28:29.261Z,15.40
2023-04-18T14:30:59.938Z,15.27
2023-04-18T14:33:53.829Z,15.12
2023-04-18T14:36:23.785Z,15.29
2023-04-18T14:38:51.417Z,15.12
2023-04-18T14:41:21.793Z,15.09
2023-04-18T14:43:50.057Z,15.15
2023-04-18T14:46:18.254Z,14.93
2023-04-18T14:48:48.731Z,15.08
2023-04-18T14:51:18.034Z,15.11
2023-04-18T14:53:47.278Z,15.12
2023-04-18T14:56:16.018Z,15.07
2023-04-18T14:58:45.127Z,15.42
2023-04-18T15:01:15.149Z,15.67
2023-04-18T15:03:44.119Z,15.50
2023-04-18T15:06:12.440Z,15.26
2023-04-18T15:08:40.824Z,15.18
2023-04-18T15:11:09.688Z,15.42
2023-04-18T15:13:37.874Z,15.39
2023-04-18T15:16:09.509Z,15.39
2023-04-18T15:18:39.820Z,15.30
2023-04-18T15:21:07.520Z,15.36
2023-04-18T15:23:36.869Z,15.37
2023-04-18T15:26:07.682Z,15.37
2023-04-18T15:28:37.516Z,15.04
2023-04-18T15:31:09.529Z,15.21
2023-04-18T15:33:42.546Z,15.29
2023-04-18T15:36:10.966Z,15.36
2023-04-18T15:41:26.232Z,15.30
2023-04-18T15:43:54.162Z,15.26
2023-04-18T15:46:23.302Z,15.40
2023-04-18T15:48:51.079Z,15.07
2023-04-18T15:51:18.957Z,14.84
2023-04-18T15:53:47.128Z,14.75
2023-04-18T15:56:15.013Z,14.80
2023-04-18T15:58:43.045Z,14.52
2023-04-18T16:01:13.083Z,14.58
2023-04-18T16:03:46.224Z,14.49
2023-04-18T16:06:17.665Z,14.50
2023-04-18T16:08:46.529Z,14.62
2023-04-18T16:11:31.971Z,14.71
2023-04-18T16:13:59.685Z,14.80
2023-04-18T16:16:29.434Z,14.99
2023-04-18T16:19:26.606Z,14.64
2023-04-18T16:21:59.675Z,14.28
2023-04-18T16:25:09.533Z,14.24
2023-04-18T16:27:37.307Z,14.26
2023-04-18T16:30:06.381Z,14.23
2023-04-18T16:32:37.362Z,14.11
2023-04-18T16:37:53.625Z,13.77
2023-04-18T16:40:30.707Z,13.80
2023-04-18T16:43:01.485Z,13.94
2023-04-18T16:45:37.967Z,13.72
2023-04-18T16:48:09.634Z,13.72
2023-04-18T16:50:39.857Z,13.58
2023-04-18T16:53:08.825Z,13.67
2023-04-18T16:55:36.541Z,13.60
2023-04-18T16:58:11.962Z,13.57
2023-04-18T17:00:48.521Z,13.45
2023-04-18T17:03:17.976Z,13.28
2023-04-18T17:05:49.652Z,13.18
2023-04-18T17:11:39.682Z,13.09
2023-04-18T17:14:24.812Z,13.04
2023-04-18T17:16:57.260Z,12.87
2023-04-18T17:19:28.454Z,12.81
2023-04-18T17:22:10.339Z,12.81
2023-04-18T17:25:11.691Z,12.69
2023-04-18T17:27:43.508Z,12.67
2023-04-18T17:30:40.549Z,12.72
2023-04-18T17:33:14.090Z,12.65
2023-04-18T17:36:14.946Z,12.67
2023-04-18T17:39:01.239Z,12.68
2023-04-18T17:41:33.018Z,12.48
2023-04-18T17:44:05.746Z,12.51
2023-04-18T17:46:51.863Z,12.54
2023-04-18T17:52:50.861Z,12.31
2023-04-18T17:55:22.606Z,12.23
2023-04-18T17:57:51.141Z,12.36
2023-04-18T18:00:43.006Z,12.36
2023-04-18T18:03:23.641Z,12.27
2023-04-18T18:06:09.489Z,12.16
2023-04-18T18:11:43.287Z,12.09
2023-04-18T18:14:31.714Z,12.21
2023-04-18T18:17:04.612Z,12.19
2023-04-18T18:19:45.345Z,12.20
2023-04-18T18:23:11.960Z,12.14
2023-04-18T18:25:48.966Z,12.25
2023-04-18T18:28:55.177Z,12.20
2023-04-18T18:37:52.899Z,12.00
2023-04-18T18:40:24.069Z,12.02
2023-04-18T18:42:55.098Z,12.12
2023-04-18T18:45:25.858Z,12.09
2023-04-18T18:47:54.315Z,12.14
2023-04-18T18:50:39.997Z,11.92
2023-04-18T18:53:09.965Z,11.93
2023-04-18T18:55:40.912Z,11.94
2023-04-18T18:58:13.093Z,12.05
2023-04-18T19:00:40.999Z,12.04
2023-04-18T19:05:56.477Z,11.96
2023-04-18T19:11:29.116Z,11.96
2023-04-18T19:13:58.146Z,12.02
2023-04-18T19:16:28.800Z,11.90
2023-04-18T19:18:56.561Z,11.89
2023-04-18T19:24:22.185Z,11.94
2023-04-18T19:29:37.108Z,11.86
2023-04-18T19:32:09.062Z,11.83
2023-04-18T19:34:37.085Z,11.70
2023-04-18T19:37:09.345Z,11.73
2023-04-18T19:39:36.990Z,11.67
2023-04-18T19:42:06.569Z,11.80
2023-04-18T19:44:34.128Z,11.90
2023-04-18T19:47:05.975Z,11.76
2023-04-18T19:49:41.581Z,11.73
2023-04-18T19:52:11.131Z,11.83
2023-04-18T19:54:38.736Z,11.84
2023-04-18T19:57:06.353Z,11.62
2023-04-18T19:59:33.975Z,11.52
2023-04-18T20:02:05.053Z,11.61
2023-04-18T20:04:34.292Z,11.55
2023-04-18T20:07:04.362Z,11.47
2023-04-18T20:09:45.684Z,11.49
2023-04-18T20:12:17.335Z,11.49
2023-04-18T20:14:45.481Z,11.66
2023-04-18T20:17:31.496Z,11.54
2023-04-18T20:20:11.526Z,11.48
2023-04-18T20:22:41.814Z,11.57
2023-04-18T20:25:11.084Z,11.71
2023-04-18T20:27:38.863Z,11.62
2023-04-18T20:30:13.959Z,11.68
2023-04-18T20:32:41.631Z,11.50
2023-04-18T20:35:09.759Z,11.49
2023-04-18T20:37:38.985Z,11.43
2023-04-18T20:40:10.888Z,11.46
2023-04-18T20:42:40.320Z,11.65
2023-04-18T20:45:11.495Z,11.58
2023-04-18T20:47:41.105Z,11.54
2023-04-18T20:50:18.540Z,11.39
2023-04-18T20:52:46.549Z,11.40
2023-04-18T20:55:16.688Z,11.40
2023-04-18T20:57:45.746Z,11.54
2023-04-18T21:00:15.906Z,11.58
2023-04-18T21:02:44.828Z,11.62
2023-04-18T21:05:12.574Z,11.66
2023-04-18T21:07:40.228Z,11.57
2023-04-18T21:10:09.971Z,11.49
2023-04-18T21:12:38.251Z,11.56
2023-04-18T21:17:43.302Z,11.56
2023-04-18T21:20:14.439Z,11.56
2023-04-18T21:22:42.337Z,11.57
2023-04-18T21:25:14.171Z,11.58
2023-04-18T21:27:42.000Z,11.43
2023-04-18T21:30:10.317Z,11.42
2023-04-18T21:32:41.386Z,11.40
2023-04-18T21:35:16.098Z,11.32
2023-04-18T21:37:45.280Z,11.26
2023-04-18T21:40:17.968Z,11.27
2023-04-18T21:42:52.095Z,11.18
2023-04-18T21:45:21.391Z,11.18
2023-04-18T21:47:52.946Z,11.16
2023-04-18T21:50:26.844Z,11.19
2023-04-18T21:52:55.820Z,11.17
2023-04-18T21:55:27.103Z,11.16
2023-04-18T21:58:00.170Z,11.23
2023-04-18T22:00:36.532Z,11.27
2023-04-18T22:03:11.493Z,11.29
2023-04-18T22:05:42.424Z,11.36
2023-04-18T22:08:15.095Z,11.22
2023-04-18T22:10:49.946Z,11.30
2023-04-18T22:13:19.321Z,11.16
2023-04-18T22:15:53.661Z,11.23
2023-04-18T22:18:24.495Z,11.26
2023-04-18T22:29:11.472Z,11.32
2023-04-18T22:31:52.188Z,11.32
2023-04-18T22:34:36.841Z,11.36
2023-04-18T22:37:09.150Z,11.33
2023-04-18T22:45:18.108Z,11.25
2023-04-18T22:48:17.581Z,11.27
2023-04-18T22:51:01.959Z,11.25
2023-04-18T22:59:27.108Z,11.34
2023-04-18T23:02:09.280Z,11.31
2023-04-18T23:07:43.290Z,11.26
2023-04-18T23:10:15.972Z,11.28
2023-04-18T23:12:45.855Z,11.30
2023-04-18T23:18:03.512Z,11.30
2023-04-18T23:26:05.634Z,11.39
2023-04-18T23:28:34.144Z,11.41
2023-04-18T23:31:02.868Z,11.38
2023-04-18T23:33:33.753Z,11.31
2023-04-18T23:36:01.600Z,11.32
2023-04-18T23:38:29.301Z,11.15
2023-04-18T23:40:57.461Z,11.23
2023-04-18T23:43:25.529Z,11.20
2023-04-18T23:45:56.331Z,11.25
2023-04-18T23:48:26.432Z,11.23
2023-04-18T23:50:56.840Z,11.07
2023-04-18T23:53:24.856Z,11.18
2023-04-18T23:55:54.853Z,11.03
2023-04-18T23:58:22.554Z,11.14
